Time;durP1;ratioP1;P1;durP2;ratioP2;P2;SDS_P1;SDS_P2;PMS_P1;PMS_P2;Temp;Humidity;BMP_temperature;BMP_pressure;BME280_temperature;BME280_humidity;BME280_pressure;Samples;Min_cycle;Max_cycle;Signal;HPM_P1;HPM_P2
2023/09/06 00:00:29;;;;;;;7.60;6.18;;;18.60;99.90;;;;;;5074931;28;20084;-57
2023/09/06 00:02:57;;;;;;;6.82;6.07;;;18.50;99.90;;;;;;5053433;28;20063;-57
2023/09/06 00:05:23;;;;;;;9.80;7.30;;;18.50;99.90;;;;;;5072212;28;20062;-58
2023/09/06 00:07:49;;;;;;;7.68;6.88;;;18.50;99.90;;;;;;5074809;28;20060;-59
2023/09/06 00:10:16;;;;;;;11.60;7.03;;;18.50;99.90;;;;;;5072473;28;20076;-57
2023/09/06 00:12:43;;;;;;;7.75;6.30;;;18.40;99.90;;;;;;5077288;28;20105;-56
2023/09/06 00:15:10;;;;;;;8.68;7.78;;;18.40;99.90;;;;;;5083780;28;20044;-57
2023/09/06 00:17:37;;;;;;;8.57;7.40;;;18.40;99.90;;;;;;5080463;28;20044;-57
2023/09/06 00:22:41;;;;;;;10.05;7.63;;;18.30;99.90;;;;;;5051004;28;20063;-58
2023/09/06 00:25:08;;;;;;;9.88;8.18;;;18.30;99.90;;;;;;5062207;28;20052;-57
2023/09/06 00:27:33;;;;;;;12.30;8.80;;;18.40;99.90;;;;;;5056145;28;21315;-57
2023/09/06 00:29:59;;;;;;;10.05;9.05;;;18.40;99.90;;;;;;5061105;28;20048;-57
2023/09/06 00:32:25;;;;;;;9.57;7.85;;;18.40;99.90;;;;;;5060128;28;20056;-56
2023/09/06 00:34:50;;;;;;;8.45;7.32;;;18.30;99.90;;;;;;5062837;28;20056;-61
2023/09/06 00:37:16;;;;;;;7.75;6.95;;;18.20;99.90;;;;;;5060070;28;20052;-59
2023/09/06 00:39:42;;;;;;;8.50;7.70;;;18.20;99.90;;;;;;5061257;28;20052;-60
2023/09/06 00:42:07;;;;;;;8.18;6.90;;;18.10;99.90;;;;;;5056572;28;20056;-57
2023/09/06 00:44:33;;;;;;;7.65;6.80;;;18.10;99.90;;;;;;5059966;28;20615;-57
2023/09/06 00:47:00;;;;;;;7.90;6.78;;;18.00;99.90;;;;;;5062272;28;20505;-56
2023/09/06 00:49:25;;;;;;;9.77;6.72;;;18.00;99.90;;;;;;5060152;28;20064;-58
2023/09/06 00:51:51;;;;;;;6.97;6.32;;;18.00;99.90;;;;;;5057853;28;20125;-58
2023/09/06 00:54:17;;;;;;;9.88;8.68;;;18.00;99.90;;;;;;5049425;28;20060;-60
2023/09/06 00:56:43;;;;;;;9.38;8.20;;;18.00;99.90;;;;;;5061094;28;20130;-60
2023/09/06 00:59:12;;;;;;;11.02;8.20;;;18.00;99.90;;;;;;5062312;28;20892;-57
2023/09/06 01:01:37;;;;;;;9.25;7.72;;;18.00;99.90;;;;;;5057930;28;20117;-59
2023/09/06 01:04:03;;;;;;;10.57;8.60;;;17.90;99.90;;;;;;5057598;28;20049;-60
2023/09/06 01:06:33;;;;;;;14.45;7.97;;;17.80;99.90;;;;;;5048780;28;20421;-57
2023/09/06 01:09:00;;;;;;;9.98;7.53;;;17.80;99.90;;;;;;5058822;28;20122;-57
2023/09/06 01:11:27;;;;;;;9.27;8.13;;;17.70;99.90;;;;;;5059606;28;20720;-58
2023/09/06 01:13:55;;;;;;;8.88;8.00;;;17.70;99.90;;;;;;5050291;28;20506;-57
2023/09/06 01:16:39;;;;;;;9.73;7.95;;;17.60;99.90;;;;;;5046248;28;20126;-56
2023/09/06 01:19:09;;;;;;;8.65;7.43;;;17.60;99.90;;;;;;5046854;28;20506;-57
2023/09/06 01:21:55;;;;;;;12.60;9.20;;;17.50;99.90;;;;;;5054898;28;20067;-56
2023/09/06 01:24:21;;;;;;;9.23;8.15;;;17.50;99.90;;;;;;4994158;28;21114;-57
2023/09/06 01:26:47;;;;;;;9.20;8.05;;;17.50;99.90;;;;;;5060954;28;20065;-57
2023/09/06 01:29:16;;;;;;;12.40;8.13;;;17.40;99.90;;;;;;5061907;28;20057;-58
2023/09/06 01:31:42;;;;;;;8.70;7.78;;;17.40;99.90;;;;;;5051579;28;20040;-57
2023/09/06 01:34:08;;;;;;;8.50;7.30;;;17.40;99.90;;;;;;5060736;28;20512;-56
2023/09/06 01:36:33;;;;;;;7.80;6.78;;;17.40;99.90;;;;;;5050714;28;20088;-57
2023/09/06 01:38:59;;;;;;;10.88;7.97;;;17.40;99.90;;;;;;5043880;28;20060;-56
2023/09/06 01:41:25;;;;;;;7.63;6.55;;;17.40;99.90;;;;;;5059375;28;20282;-56
2023/09/06 01:43:54;;;;;;;7.80;7.00;;;17.40;99.90;;;;;;5061726;28;20086;-57
2023/09/06 01:46:20;;;;;;;7.72;6.93;;;17.30;99.90;;;;;;5060107;28;20486;-57
2023/09/06 01:48:46;;;;;;;9.45;7.38;;;17.30;99.90;;;;;;5059594;28;20065;-57
2023/09/06 01:51:16;;;;;;;8.60;6.90;;;17.30;99.90;;;;;;5061384;28;20052;-56
2023/09/06 01:53:42;;;;;;;7.53;6.57;;;17.30;99.90;;;;;;5041342;28;21297;-57
2023/09/06 01:56:08;;;;;;;9.32;6.47;;;17.30;99.90;;;;;;5055473;28;20052;-57
2023/09/06 01:58:37;;;;;;;7.50;6.63;;;17.30;99.90;;;;;;5039756;28;20134;-58
2023/09/06 02:01:04;;;;;;;7.78;6.32;;;17.20;99.90;;;;;;5050930;28;20509;-59
2023/09/06 02:03:33;;;;;;;8.20;7.40;;;17.20;99.90;;;;;;5079079;28;20048;-57
2023/09/06 02:06:03;;;;;;;8.93;7.82;;;17.20;99.90;;;;;;5081563;28;20051;-57
2023/09/06 02:08:29;;;;;;;8.55;7.10;;;17.20;99.90;;;;;;5078780;28;20143;-59
2023/09/06 02:10:55;;;;;;;8.57;7.22;;;17.10;99.90;;;;;;5063638;28;20185;-59
2023/09/06 02:13:20;;;;;;;8.30;6.90;;;17.10;99.90;;;;;;5061436;28;20139;-57
2023/09/06 02:15:46;;;;;;;7.80;6.97;;;17.10;99.90;;;;;;5080656;28;20052;-56
2023/09/06 02:18:17;;;;;;;6.18;5.57;;;17.00;99.90;;;;;;5081244;28;20889;-56
2023/09/06 02:20:44;;;;;;;9.13;6.88;;;17.00;99.90;;;;;;5077854;28;20623;-57
2023/09/06 02:23:10;;;;;;;6.90;6.22;;;17.00;99.90;;;;;;5081307;28;20405;-56
2023/09/06 02:25:36;;;;;;;9.35;7.18;;;16.90;99.90;;;;;;5078461;28;20036;-56
2023/09/06 02:28:05;;;;;;;6.63;6.03;;;16.90;99.90;;;;;;5079359;28;20425;-57
2023/09/06 02:30:31;;;;;;;7.63;6.82;;;16.90;99.90;;;;;;5082661;28;20047;-56
2023/09/06 02:32:57;;;;;;;6.63;5.47;;;16.90;99.90;;;;;;5086186;28;20064;-60
2023/09/06 02:35:23;;;;;;;7.80;6.47;;;16.80;99.90;;;;;;5056363;28;20056;-57
2023/09/06 02:37:49;;;;;;;7.05;6.35;;;16.80;99.90;;;;;;5084770;28;20139;-59
2023/09/06 02:40:18;;;;;;;7.53;6.00;;;16.80;99.90;;;;;;5046748;28;1098738;-56
2023/09/06 02:42:44;;;;;;;7.07;6.38;;;16.80;99.90;;;;;;5064624;28;20051;-57
2023/09/06 02:45:11;;;;;;;6.07;4.97;;;16.70;99.90;;;;;;5066904;28;20056;-59
2023/09/06 02:47:48;;;;;;;7.15;5.25;;;16.70;99.90;;;;;;5082721;28;20060;-56
2023/09/06 02:50:16;;;;;;;6.07;5.47;;;16.70;99.90;;;;;;5085595;28;20056;-57
2023/09/06 02:52:44;;;;;;;6.90;5.20;;;16.60;99.90;;;;;;5082900;28;20062;-56
2023/09/06 02:57:37;;;;;;;5.80;5.13;;;16.20;99.90;;;;;;5055992;28;20059;-56
2023/09/06 03:00:23;;;;;;;5.97;5.00;;;16.60;99.90;;;;;;5063817;28;20060;-56
2023/09/06 03:02:41;;;;;;;4.63;4.22;;;16.50;99.90;;;;;;5082854;28;20052;-57
2023/09/06 03:05:09;;;;;;;5.40;4.53;;;16.50;99.90;;;;;;5065288;28;20048;-57
2023/09/06 03:07:35;;;;;;;3.85;3.55;;;16.40;99.90;;;;;;5082136;28;20052;-56
2023/09/06 03:10:01;;;;;;;3.00;2.70;;;16.40;99.90;;;;;;5084637;28;20059;-56
2023/09/06 03:12:26;;;;;;;3.45;3.00;;;16.40;99.90;;;;;;5081848;28;20382;-57
2023/09/06 03:14:55;;;;;;;6.32;4.78;;;16.30;99.90;;;;;;5084955;28;20121;-56
2023/09/06 03:17:22;;;;;;;6.40;5.70;;;16.40;99.90;;;;;;5082533;28;20844;-58
2023/09/06 03:19:59;;;;;;;5.32;4.90;;;16.40;99.90;;;;;;5084093;28;20090;-56
2023/09/06 03:22:27;;;;;;;6.00;5.40;;;16.40;99.90;;;;;;5081088;28;20456;-57
2023/09/06 03:24:55;;;;;;;6.15;4.65;;;16.50;99.90;;;;;;5083944;28;20151;-56
2023/09/06 03:27:21;;;;;;;6.68;5.22;;;16.40;99.90;;;;;;5044159;28;20048;-55
2023/09/06 03:29:51;;;;;;;6.50;5.78;;;16.40;99.90;;;;;;5083709;28;20055;-58
2023/09/06 03:32:18;;;;;;;6.07;5.47;;;16.40;99.90;;;;;;5083220;28;20060;-57
2023/09/06 03:34:45;;;;;;;5.70;5.07;;;16.40;99.90;;;;;;5082866;28;20496;-60
2023/09/06 03:37:11;;;;;;;7.18;6.47;;;16.20;99.90;;;;;;5084000;28;20048;-56
2023/09/06 03:39:41;;;;;;;7.18;6.47;;;16.20;99.90;;;;;;5080395;28;20113;-56
2023/09/06 03:42:08;;;;;;;6.82;6.13;;;16.30;99.90;;;;;;5083948;28;20098;-57
2023/09/06 03:44:37;;;;;;;7.65;6.20;;;16.30;99.90;;;;;;5081735;28;20067;-57
2023/09/06 03:47:05;;;;;;;7.55;6.05;;;16.20;99.90;;;;;;5065763;28;20060;-56
2023/09/06 03:49:35;;;;;;;10.27;7.30;;;16.20;99.90;;;;;;5081557;28;20060;-58
2023/09/06 03:52:04;;;;;;;10.40;6.85;;;16.20;99.90;;;;;;5080841;28;20514;-58
2023/09/06 03:54:34;;;;;;;7.13;6.13;;;16.10;99.90;;;;;;5080638;28;20139;-58
2023/09/06 03:57:04;;;;;;;7.05;6.35;;;16.20;99.90;;;;;;5079917;28;20135;-56
2023/09/06 03:59:37;;;;;;;8.77;6.55;;;16.10;99.90;;;;;;5080960;28;20055;-57
2023/09/06 04:02:07;;;;;;;8.00;6.20;;;16.10;99.90;;;;;;5062479;28;20062;-56
2023/09/06 04:04:34;;;;;;;7.15;6.18;;;16.00;99.90;;;;;;5080884;28;20064;-57
2023/09/06 04:07:00;;;;;;;6.20;5.47;;;16.00;99.90;;;;;;5083763;28;20146;-57
2023/09/06 04:09:30;;;;;;;6.15;5.55;;;16.00;99.90;;;;;;5080979;28;20499;-56
2023/09/06 04:11:59;;;;;;;7.75;6.90;;;15.90;99.90;;;;;;5083493;28;20725;-60
2023/09/06 04:14:24;;;;;;;6.60;5.93;;;16.00;99.90;;;;;;5080980;28;20394;-57
2023/09/06 04:16:50;;;;;;;7.32;6.63;;;15.90;99.90;;;;;;5083604;28;20063;-57
2023/09/06 04:19:16;;;;;;;8.18;7.15;;;16.00;99.90;;;;;;5063054;28;20055;-56
2023/09/06 04:21:43;;;;;;;6.72;6.13;;;15.90;99.90;;;;;;5063406;28;20635;-57
2023/09/06 04:24:09;;;;;;;6.25;5.53;;;15.90;99.90;;;;;;5083509;28;20619;-60
2023/09/06 04:26:35;;;;;;;6.82;6.13;;;15.90;99.90;;;;;;5078942;28;20052;-60
2023/09/06 04:29:04;;;;;;;7.45;6.65;;;15.80;99.90;;;;;;5081778;28;20060;-58
2023/09/06 04:31:30;;;;;;;7.47;6.68;;;15.80;99.90;;;;;;5080270;28;20081;-57
2023/09/06 04:34:01;;;;;;;6.43;5.40;;;15.80;99.90;;;;;;5082723;28;20052;-57
2023/09/06 04:36:26;;;;;;;7.93;5.95;;;15.80;99.90;;;;;;5078148;28;20072;-57
2023/09/06 04:38:53;;;;;;;7.40;6.10;;;15.80;99.90;;;;;;5065030;28;20044;-57
2023/09/06 04:41:18;;;;;;;5.95;5.13;;;15.70;99.90;;;;;;5081940;28;20090;-56
2023/09/06 04:43:45;;;;;;;7.03;5.68;;;15.70;99.90;;;;;;5062591;28;20490;-57
2023/09/06 04:46:10;;;;;;;6.45;5.80;;;15.70;99.90;;;;;;5082850;28;20062;-56
2023/09/06 04:48:36;;;;;;;6.50;5.80;;;15.60;99.90;;;;;;5079596;28;20064;-59
2023/09/06 04:51:02;;;;;;;6.85;5.13;;;15.60;99.90;;;;;;5063785;28;20058;-57
2023/09/06 04:53:28;;;;;;;5.90;5.32;;;15.60;99.90;;;;;;5061279;28;20139;-57
2023/09/06 04:55:54;;;;;;;11.23;7.05;;;15.50;99.90;;;;;;5081932;28;20201;-57
2023/09/06 04:58:20;;;;;;;6.25;5.55;;;15.50;99.90;;;;;;5061544;28;20125;-56
2023/09/06 05:00:47;;;;;;;6.90;6.20;;;15.50;99.90;;;;;;5081666;28;20059;-57
2023/09/06 05:03:17;;;;;;;7.15;5.90;;;15.50;99.90;;;;;;5082093;28;20052;-59
2023/09/06 05:05:48;;;;;;;9.15;6.05;;;15.50;99.90;;;;;;5079959;28;20063;-57
2023/09/06 05:08:17;;;;;;;6.65;6.00;;;15.50;99.90;;;;;;5081620;28;20054;-57
2023/09/06 05:10:43;;;;;;;7.40;6.32;;;15.50;99.90;;;;;;5080016;28;20401;-57
2023/09/06 05:13:11;;;;;;;6.93;6.20;;;15.50;99.90;;;;;;5082080;28;20109;-57
2023/09/06 05:15:37;;;;;;;7.20;6.28;;;15.50;99.90;;;;;;5079284;28;20113;-56
2023/09/06 05:18:05;;;;;;;7.38;6.70;;;15.60;99.90;;;;;;5082018;28;20056;-57
2023/09/06 05:20:37;;;;;;;8.43;5.95;;;15.60;99.90;;;;;;5079424;28;20052;-56
2023/09/06 05:23:09;;;;;;;7.75;6.38;;;15.50;99.90;;;;;;5077952;28;20067;-56
2023/09/06 05:25:35;;;;;;;8.00;6.63;;;15.50;99.90;;;;;;5077804;28;20105;-57
2023/09/06 05:28:03;;;;;;;7.85;7.10;;;15.50;99.90;;;;;;5062451;28;20059;-56
2023/09/06 05:30:29;;;;;;;12.48;7.82;;;15.60;99.90;;;;;;5079294;28;20052;-56
2023/09/06 05:32:56;;;;;;;10.57;6.80;;;15.60;99.90;;;;;;5081962;28;20054;-56
2023/09/06 05:35:26;;;;;;;8.75;7.35;;;15.70;99.90;;;;;;5079706;28;20110;-56
2023/09/06 05:37:52;;;;;;;7.22;6.15;;;15.80;99.90;;;;;;5062815;28;20505;-57
2023/09/06 05:40:26;;;;;;;7.53;6.82;;;15.80;99.90;;;;;;5080072;28;20036;-56
2023/09/06 05:42:52;;;;;;;7.82;6.72;;;15.90;99.90;;;;;;5071795;28;20080;-56
2023/09/06 05:45:21;;;;;;;8.25;7.35;;;16.00;99.90;;;;;;5070559;28;20501;-56
2023/09/06 05:47:47;;;;;;;9.02;6.55;;;16.10;99.90;;;;;;5077489;28;20147;-57
2023/09/06 05:50:17;;;;;;;11.02;8.07;;;16.20;99.90;;;;;;5081465;28;20052;-56
2023/09/06 05:52:42;;;;;;;7.65;5.93;;;16.30;99.90;;;;;;5078971;28;20475;-56
2023/09/06 05:55:10;;;;;;;7.32;6.35;;;16.40;99.90;;;;;;5080918;28;20048;-56
2023/09/06 05:57:35;;;;;;;8.35;6.78;;;16.50;99.90;;;;;;5078458;28;20547;-57
2023/09/06 06:00:02;;;;;;;8.38;7.45;;;16.70;99.90;;;;;;5063141;28;20056;-56
2023/09/06 06:02:31;;;;;;;6.93;6.07;;;16.80;99.90;;;;;;5075928;28;20499;-58
2023/09/06 06:04:56;;;;;;;8.23;7.30;;;16.90;99.90;;;;;;5075145;28;20072;-59
2023/09/06 06:07:23;;;;;;;10.63;6.93;;;17.00;99.90;;;;;;5077108;28;20064;-56
2023/09/06 06:09:48;;;;;;;8.93;7.07;;;17.10;99.90;;;;;;5059717;28;20105;-57
2023/09/06 06:12:22;;;;;;;7.32;6.45;;;17.30;99.90;;;;;;5079917;28;20101;-57
2023/09/06 06:14:49;;;;;;;9.10;7.30;;;17.40;99.90;;;;;;5078952;28;20044;-57
2023/09/06 06:17:16;;;;;;;8.68;6.90;;;17.60;99.90;;;;;;5083580;28;20824;-59
2023/09/06 06:19:42;;;;;;;9.23;6.78;;;17.70;99.90;;;;;;5079970;28;20086;-57
2023/09/06 06:22:09;;;;;;;7.55;6.85;;;17.80;99.90;;;;;;5084232;28;20059;-57
2023/09/06 06:24:35;;;;;;;8.25;6.53;;;18.00;99.90;;;;;;5081056;28;20056;-57
2023/09/06 06:27:01;;;;;;;8.20;6.13;;;18.10;99.90;;;;;;5057671;28;20504;-58
2023/09/06 06:29:29;;;;;;;6.75;6.00;;;18.30;99.90;;;;;;5075700;28;20055;-56
2023/09/06 06:31:55;;;;;;;7.15;6.22;;;18.40;99.90;;;;;;5086170;28;20405;-58
2023/09/06 06:34:21;;;;;;;7.38;6.25;;;18.60;99.90;;;;;;5077135;28;20063;-57
2023/09/06 06:36:47;;;;;;;7.85;5.90;;;18.80;99.90;;;;;;5084587;28;20524;-57
2023/09/06 06:39:17;;;;;;;8.02;5.93;;;19.10;99.90;;;;;;5086876;28;20056;-57
2023/09/06 06:41:44;;;;;;;5.90;5.30;;;19.20;99.90;;;;;;5084694;28;20862;-57
2023/09/06 06:44:10;;;;;;;7.50;6.40;;;19.50;99.90;;;;;;5088648;28;20556;-57
2023/09/06 06:46:37;;;;;;;8.20;5.60;;;19.60;99.90;;;;;;5084936;28;20047;-57
2023/09/06 06:49:04;;;;;;;6.28;5.68;;;19.80;99.90;;;;;;5079218;28;20517;-56
2023/09/06 06:51:35;;;;;;;6.78;5.40;;;20.10;99.90;;;;;;5084673;28;20047;-57
2023/09/06 06:56:38;;;;;;;5.03;4.40;;;20.60;99.90;;;;;;5083288;28;20510;-57
2023/09/06 06:59:04;;;;;;;6.30;5.70;;;20.80;99.90;;;;;;5041801;28;1120367;-57
2023/09/06 07:01:30;;;;;;;7.13;4.65;;;21.00;99.90;;;;;;5085773;28;20083;-56
2023/09/06 07:03:57;;;;;;;4.65;4.10;;;21.10;99.90;;;;;;5078453;28;20289;-57
2023/09/06 07:06:24;;;;;;;5.18;4.40;;;21.40;99.90;;;;;;5080045;28;20060;-57
2023/09/06 07:08:52;;;;;;;4.38;3.72;;;21.60;99.90;;;;;;5083780;28;20047;-57
2023/09/06 07:11:19;;;;;;;6.22;4.18;;;21.80;99.90;;;;;;5084026;28;20366;-57
2023/09/06 07:13:49;;;;;;;4.90;4.45;;;22.00;99.90;;;;;;5080216;28;20064;-57
2023/09/06 07:16:18;;;;;;;5.05;3.80;;;22.20;99.90;;;;;;5086507;28;20056;-57
2023/09/06 07:18:45;;;;;;;5.38;4.18;;;22.40;99.90;;;;;;5085871;28;20044;-58
2023/09/06 07:24:03;;;;;;;4.68;4.18;;;22.70;99.90;;;;;;5078955;28;20062;-59
2023/09/06 07:26:29;;;;;;;4.30;3.88;;;22.90;99.90;;;;;;5081680;28;20064;-58
2023/09/06 07:28:55;;;;;;;3.47;3.17;;;23.10;99.90;;;;;;5086321;28;20117;-57
2023/09/06 07:31:20;;;;;;;5.25;3.13;;;23.40;99.90;;;;;;5081548;28;20052;-57
2023/09/06 07:33:46;;;;;;;6.07;3.67;;;23.30;99.90;;;;;;5063917;28;20068;-57
2023/09/06 07:36:16;;;;;;;3.67;3.38;;;23.70;99.90;;;;;;5086484;28;20055;-58
2023/09/06 07:38:41;;;;;;;3.55;3.25;;;23.70;99.90;;;;;;5055575;28;20195;-57
2023/09/06 07:41:08;;;;;;;4.78;3.38;;;23.80;99.90;;;;;;5090081;28;20056;-57
2023/09/06 07:43:35;;;;;;;5.05;3.63;;;23.90;99.90;;;;;;5088193;28;20389;-58
2023/09/06 07:46:02;;;;;;;5.47;3.20;;;24.10;99.90;;;;;;5090089;28;20064;-57
2023/09/06 07:48:30;;;;;;;3.70;3.10;;;24.30;99.90;;;;;;5081096;28;20048;-57
2023/09/06 07:50:58;;;;;;;3.45;3.15;;;24.50;99.90;;;;;;5084273;28;20065;-58
2023/09/06 07:53:25;;;;;;;4.13;2.78;;;24.70;99.90;;;;;;5081235;28;20091;-57
2023/09/06 07:55:52;;;;;;;3.35;2.88;;;24.90;99.90;;;;;;5079610;28;20170;-58
2023/09/06 07:58:18;;;;;;;4.07;3.05;;;25.00;99.90;;;;;;5083291;28;20071;-57
2023/09/06 08:00:44;;;;;;;3.70;3.38;;;25.20;99.90;;;;;;5081924;28;20052;-57
2023/09/06 08:03:11;;;;;;;3.90;2.75;;;25.50;99.90;;;;;;5083332;28;20541;-57
2023/09/06 08:05:37;;;;;;;3.30;3.00;;;25.60;99.90;;;;;;5082234;28;21168;-57
2023/09/06 08:08:07;;;;;;;4.13;2.75;;;25.90;99.90;;;;;;5084737;28;20108;-57
2023/09/06 08:10:33;;;;;;;2.63;2.42;;;26.10;99.90;;;;;;5077113;28;20052;-58
2023/09/06 08:12:59;;;;;;;4.10;2.58;;;26.30;99.90;;;;;;5083676;28;20543;-57
2023/09/06 08:15:25;;;;;;;4.57;2.80;;;26.60;99.90;;;;;;5081641;28;20073;-58
2023/09/06 08:17:51;;;;;;;2.83;2.33;;;26.80;99.90;;;;;;5080063;28;20052;-57
2023/09/06 08:20:17;;;;;;;2.70;2.20;;;27.00;99.90;;;;;;5082751;28;20052;-57
2023/09/06 08:22:47;;;;;;;2.25;1.85;;;27.10;99.90;;;;;;5080898;28;20074;-58
2023/09/06 08:25:18;;;;;;;4.30;2.38;;;27.60;99.90;;;;;;5081482;28;20150;-57
2023/09/06 08:27:44;;;;;;;3.22;1.95;;;27.70;99.90;;;;;;5070787;28;20056;-57
2023/09/06 08:33:03;;;;;;;3.30;2.15;;;28.20;99.90;;;;;;5084707;28;20052;-58
2023/09/06 08:35:29;;;;;;;3.20;2.20;;;28.70;99.90;;;;;;5085061;28;20047;-58
2023/09/06 08:37:55;;;;;;;4.00;2.15;;;29.00;99.90;;;;;;5087968;28;20405;-58
2023/09/06 08:40:21;;;;;;;2.88;1.70;;;29.40;99.90;;;;;;5089729;28;20059;-58
2023/09/06 08:42:49;;;;;;;3.92;2.30;;;29.70;99.90;;;;;;5089386;28;20055;-58
2023/09/06 08:45:24;;;;;;;1.52;1.42;;;29.90;99.90;;;;;;5094920;28;20104;-59
2023/09/06 08:47:50;;;;;;;2.33;1.63;;;30.10;99.90;;;;;;5091413;28;20524;-57
2023/09/06 08:50:17;;;;;;;3.25;2.08;;;30.20;99.90;;;;;;5090001;28;20051;-59
2023/09/06 08:52:44;;;;;;;3.25;1.90;;;30.30;99.90;;;;;;5091084;28;20136;-62
2023/09/06 08:55:10;;;;;;;3.35;1.50;;;30.50;99.90;;;;;;5067286;28;20052;-67
2023/09/06 08:57:41;;;;;;;2.13;1.80;;;30.60;99.90;;;;;;5087687;28;20880;-64
2023/09/06 09:00:09;;;;;;;5.57;1.70;;;31.00;99.90;;;;;;5077024;28;20064;-63
2023/09/06 09:02:36;;;;;;;3.45;1.65;;;30.80;99.90;;;;;;5072024;28;20068;-57
2023/09/06 09:05:05;;;;;;;5.18;1.60;;;31.10;99.90;;;;;;5084220;28;20139;-58
2023/09/06 09:07:30;;;;;;;1.48;1.38;;;31.20;99.90;;;;;;5077954;28;20401;-57
2023/09/06 09:10:09;;;;;;;4.15;1.67;;;31.20;99.90;;;;;;5061264;28;20525;-58
2023/09/06 09:12:36;;;;;;;2.42;1.60;;;31.20;99.90;;;;;;5075931;28;20075;-57
2023/09/06 09:15:03;;;;;;;3.63;1.60;;;31.40;99.90;;;;;;5079588;28;20044;-58
2023/09/06 09:17:29;;;;;;;1.48;1.30;;;32.00;99.90;;;;;;5038009;28;20089;-57
2023/09/06 09:19:58;;;;;;;2.08;1.63;;;32.00;99.90;;;;;;5064272;28;20067;-58
2023/09/06 09:22:27;;;;;;;4.25;1.27;;;31.50;99.90;;;;;;5086321;28;20144;-59
2023/09/06 09:25:03;;;;;;;1.70;1.52;;;31.70;99.90;;;;;;5075278;28;20519;-58
2023/09/06 09:27:31;;;;;;;2.92;1.55;;;31.50;99.90;;;;;;5075691;28;20454;-59
2023/09/06 09:29:59;;;;;;;2.72;1.67;;;32.00;99.90;;;;;;5078048;28;20060;-59
2023/09/06 09:32:25;;;;;;;1.52;1.40;;;31.60;99.90;;;;;;5079085;28;20546;-58
2023/09/06 09:34:52;;;;;;;1.90;1.33;;;32.20;99.90;;;;;;5082699;28;20133;-63
2023/09/06 09:37:19;;;;;;;2.00;1.42;;;32.60;99.90;;;;;;5057945;28;20052;-57
2023/09/06 09:39:45;;;;;;;3.50;1.35;;;32.70;99.90;;;;;;5083202;28;20063;-58
2023/09/06 09:42:11;;;;;;;5.68;1.80;;;32.50;99.90;;;;;;5082451;28;20059;-58
2023/09/06 09:44:38;;;;;;;2.28;1.42;;;32.70;99.90;;;;;;5079216;28;20084;-59
2023/09/06 09:49:39;;;;;;;;;;;33.00;99.90;;;;;;5080184;28;20102;-59
2023/09/06 09:52:10;;;;;;;1.73;1.45;;;32.60;99.90;;;;;;5060535;28;19955;-58
2023/09/06 09:54:40;;;;;;;3.38;1.63;;;32.40;99.90;;;;;;5075320;28;20048;-59
2023/09/06 09:57:07;;;;;;;1.90;1.30;;;32.70;99.90;;;;;;5081072;28;20063;-59
2023/09/06 09:59:35;;;;;;;1.92;1.70;;;32.80;99.90;;;;;;5077524;28;20075;-59
2023/09/06 10:02:02;;;;;;;1.70;1.45;;;32.40;99.90;;;;;;5053117;28;20050;-58
2023/09/06 10:04:29;;;;;;;2.83;1.48;;;32.60;99.90;;;;;;5074115;28;20402;-58
2023/09/06 10:06:55;;;;;;;1.75;1.40;;;32.80;99.90;;;;;;5073897;28;20052;-58
2023/09/06 10:09:22;;;;;;;1.55;1.45;;;32.70;99.90;;;;;;5071644;28;20059;-58
2023/09/06 10:11:51;;;;;;;1.38;1.27;;;32.90;99.90;;;;;;5075344;28;20052;-58
2023/09/06 10:14:19;;;;;;;1.45;1.35;;;32.60;99.90;;;;;;5075140;28;20063;-58
2023/09/06 10:16:48;;;;;;;4.65;1.67;;;32.60;99.90;;;;;;5078744;28;20055;-59
2023/09/06 10:19:19;;;;;;;2.03;1.55;;;32.70;99.90;;;;;;5083030;28;20060;-58
2023/09/06 10:21:46;;;;;;;1.95;1.75;;;33.10;99.90;;;;;;5077157;28;20055;-58
2023/09/06 10:24:16;;;;;;;6.18;1.63;;;33.00;99.90;;;;;;5085545;28;20493;-59
2023/09/06 10:26:43;;;;;;;1.58;1.48;;;33.20;99.90;;;;;;5080154;28;20148;-58
2023/09/06 10:29:09;;;;;;;1.65;1.42;;;33.50;99.90;;;;;;5078590;28;20059;-57
2023/09/06 10:31:46;;;;;;;1.67;1.58;;;33.60;99.90;;;;;;5079159;28;20109;-57
2023/09/06 10:36:57;;;;;;;1.63;1.52;;;33.40;99.90;;;;;;5078205;28;20135;-58
2023/09/06 10:39:25;;;;;;;1.50;1.25;;;33.40;99.40;;;;;;5074405;28;20414;-58
2023/09/06 10:42:11;;;;;;;2.70;1.30;;;33.40;99.90;;;;;;5086729;28;20131;-58
2023/09/06 10:44:55;;;;;;;1.20;1.10;;;33.60;99.00;;;;;;5084026;28;20505;-57
2023/09/06 10:47:31;;;;;;;3.10;1.42;;;33.40;98.20;;;;;;5079477;28;20060;-57
2023/09/06 10:50:16;;;;;;;3.20;1.55;;;33.10;99.10;;;;;;5080590;28;20051;-57
2023/09/06 10:52:49;;;;;;;3.40;1.83;;;33.20;98.60;;;;;;5087530;28;20052;-58
2023/09/06 10:55:20;;;;;;;1.48;1.38;;;33.40;99.40;;;;;;5087721;28;20056;-57
2023/09/06 10:57:48;;;;;;;1.50;1.13;;;33.60;99.80;;;;;;5088226;28;20067;-58
2023/09/06 11:00:21;;;;;;;2.45;1.45;;;33.80;99.90;;;;;;5088314;28;20060;-58
2023/09/06 11:03:07;;;;;;;1.33;1.23;;;33.90;98.90;;;;;;5077315;28;20056;-59
2023/09/06 11:05:39;;;;;;;2.88;1.73;;;33.60;98.10;;;;;;5077901;28;20064;-58
2023/09/06 11:08:08;;;;;;;2.83;1.52;;;33.80;98.90;;;;;;5089820;28;20056;-59
2023/09/06 11:10:35;;;;;;;2.92;1.40;;;33.60;99.00;;;;;;5087550;28;20039;-58
2023/09/06 11:13:11;;;;;;;1.52;1.30;;;33.90;98.60;;;;;;5084066;28;20052;-58
2023/09/06 11:15:38;;;;;;;2.75;1.38;;;33.80;97.60;;;;;;5037059;28;1134940;-58
2023/09/06 11:18:04;;;;;;;1.70;1.48;;;33.70;97.80;;;;;;5086484;28;20056;-58
2023/09/06 11:20:32;;;;;;;2.60;1.27;;;33.50;98.60;;;;;;5082990;28;20113;-58
2023/09/06 11:22:59;;;;;;;1.75;1.30;;;34.10;98.60;;;;;;5087134;28;20063;-60
2023/09/06 11:25:27;;;;;;;1.52;1.35;;;36.00;97.90;;;;;;5084714;28;20077;-58
2023/09/06 11:27:56;;;;;;;2.13;1.17;;;37.80;95.90;;;;;;5085014;28;20047;-58
2023/09/06 11:30:23;;;;;;;1.30;1.20;;;39.00;94.60;;;;;;5087309;28;20052;-57
2023/09/06 11:32:55;;;;;;;1.70;1.50;;;39.50;93.80;;;;;;5087521;28;20109;-58
2023/09/06 11:35:34;;;;;;;1.98;1.48;;;40.90;93.30;;;;;;5084684;28;20062;-58
2023/09/06 11:38:02;;;;;;;3.72;1.55;;;42.70;92.60;;;;;;5081636;28;20059;-58
2023/09/06 11:40:32;;;;;;;2.90;2.00;;;43.00;92.30;;;;;;5083505;28;20098;-59
2023/09/06 11:43:02;;;;;;;1.48;1.38;;;42.80;91.30;;;;;;5086874;28;20067;-60
2023/09/06 11:45:31;;;;;;;5.28;1.00;;;42.40;91.00;;;;;;5085930;28;20110;-60
2023/09/06 11:47:59;;;;;;;1.60;1.35;;;43.70;90.30;;;;;;5083429;28;20055;-58
2023/09/06 11:50:29;;;;;;;1.88;1.30;;;43.20;90.10;;;;;;5081381;28;20084;-58
2023/09/06 11:52:58;;;;;;;2.20;1.33;;;44.00;88.70;;;;;;5066126;28;20676;-58
2023/09/06 11:55:28;;;;;;;1.73;1.38;;;44.00;87.90;;;;;;5052277;28;20440;-58
2023/09/06 11:57:57;;;;;;;1.20;1.10;;;42.70;86.10;;;;;;5089298;28;20519;-58
2023/09/06 12:00:42;;;;;;;1.13;1.02;;;43.00;87.20;;;;;;5060766;28;20079;-58
2023/09/06 12:05:40;;;;;;;1.10;1.00;;;41.60;86.20;;;;;;5088019;28;20117;-58
2023/09/06 12:08:07;;;;;;;2.72;1.33;;;40.40;88.20;;;;;;5087310;28;20059;-58
2023/09/06 12:10:34;;;;;;;2.65;1.33;;;39.20;89.70;;;;;;5089268;28;20114;-58
2023/09/06 12:13:03;;;;;;;1.23;1.13;;;38.10;90.70;;;;;;5088036;28;20063;-58
2023/09/06 12:15:30;;;;;;;1.33;1.23;;;37.90;91.00;;;;;;5081252;28;20059;-59
2023/09/06 12:17:56;;;;;;;1.70;1.60;;;37.60;91.60;;;;;;5086799;28;20048;-58
2023/09/06 12:20:23;;;;;;;2.53;1.60;;;37.40;91.70;;;;;;5092923;28;20086;-57
2023/09/06 12:22:51;;;;;;;3.17;0.80;;;37.10;91.60;;;;;;5089600;28;20402;-58
2023/09/06 12:25:20;;;;;;;1.63;1.20;;;36.40;91.90;;;;;;5086917;28;20139;-57
2023/09/06 12:27:47;;;;;;;1.17;1.05;;;36.90;91.70;;;;;;5061826;28;20051;-58
2023/09/06 12:30:20;;;;;;;1.20;0.90;;;36.10;90.90;;;;;;5090229;28;20052;-57
2023/09/06 12:32:46;;;;;;;4.00;1.30;;;35.60;91.90;;;;;;5060277;28;20052;-59
2023/09/06 12:35:17;;;;;;;2.00;1.35;;;35.70;92.40;;;;;;5091590;28;20059;-58
2023/09/06 12:37:42;;;;;;;1.77;1.27;;;35.70;92.70;;;;;;5093063;28;20142;-58
2023/09/06 12:40:10;;;;;;;1.45;1.15;;;36.00;93.20;;;;;;5090413;28;20079;-58
2023/09/06 12:42:37;;;;;;;2.25;1.30;;;36.00;93.10;;;;;;5081747;28;20151;-58
2023/09/06 12:45:04;;;;;;;1.80;1.63;;;35.80;93.30;;;;;;5087457;28;20066;-60
2023/09/06 12:47:30;;;;;;;2.55;1.10;;;35.60;94.30;;;;;;5086535;28;20079;-58
2023/09/06 12:49:55;;;;;;;1.15;1.02;;;36.10;93.90;;;;;;5088261;28;20265;-59
2023/09/06 12:52:21;;;;;;;1.85;1.00;;;36.40;94.10;;;;;;5081698;28;20155;-58
2023/09/06 12:54:48;;;;;;;2.60;1.25;;;36.30;93.80;;;;;;5094034;28;20059;-60
2023/09/06 12:57:17;;;;;;;1.20;1.10;;;36.20;93.60;;;;;;5081070;28;20080;-59
2023/09/06 12:59:43;;;;;;;1.48;1.38;;;36.30;94.20;;;;;;5074386;28;20063;-62
2023/09/06 13:02:08;;;;;;;2.35;1.02;;;36.60;93.50;;;;;;5073831;28;20056;-63
2023/09/06 13:04:34;;;;;;;1.60;1.08;;;37.10;93.10;;;;;;5083441;28;20062;-64
2023/09/06 13:07:00;;;;;;;2.63;1.25;;;37.00;92.90;;;;;;5086422;28;20043;-61
2023/09/06 13:09:26;;;;;;;2.67;1.02;;;37.80;92.70;;;;;;5087625;28;20416;-64